Norfolk — WDG2147 — position and weather

sailwx.info

Track history (hours):
 
Tides and Currents Weather Stations Pressure Air Temp Water Temp Dewpoint Dewpoint Depression Visibility Wind Speed Wind Dir Waves Ship Positions

Norfolk

Owner: Virginia Pilot Boat Corporation, Virginia Beach, VA. More information available from US FCC via Universal Licensing System and Coast Guard Vessel Documentation Center.

Last reported at 2016-Jul-01 13:33 UTC. Time now 2016-Jul-01 17:14 UTC.
Position N 36°54' W 076°05'.

Length 18 m; draft 1.5 m.

Type: Pilot. MMSI: 367512630.

Date/timePositionNaut miles runAvg speedWind from/ knotsBaromVisibWave heightAir tempDewpointWater temp
2016-Jul-01 13:33N 36°54' W 076°05'0 0.0
2016-Jul-01 12:33N 36°54' W 076°05'0 0.0
2016-Jul-01 11:33N 36°54' W 076°05'0 0.0
2016-Jun-29 19:25N 36°54' W 076°05'0 0.0
2016-Jun-29 18:13N 36°54' W 076°05'0 0.0
2016-Jun-29 15:06N 36°54' W 076°05'0 0.0
2016-Jun-29 14:20N 36°54' W 076°05'0 0.0
2016-Jun-29 13:29N 36°54' W 076°05'0 0.0
2016-Jun-28 22:26N 36°54' W 076°06'2 1.5
2016-Jun-28 21:18N 36°56' W 076°04'0 0.1
2016-Jun-28 19:33N 36°56' W 076°04'2 0.4
2016-Jun-28 15:12N 36°54' W 076°05'2 0.9
2016-Jun-28 13:08N 36°56' W 076°05'2 0.2
2016-Jun-28 06:18N 36°55' W 076°05'3 0.3
2016-Jun-27 20:30N 36°57' W 076°04'1 1.2
2016-Jun-27 19:33N 36°56' W 076°04'2 0.6
2016-Jun-27 16:22N 36°54' W 076°05'0 0.5
2016-Jun-27 15:33N 36°55' W 076°05'0 0.2
2016-Jun-27 13:11N 36°54' W 076°05'0 0.0
2016-Jun-27 12:32N 36°54' W 076°05'1514.9
2016-Jun-27 11:33N 37°09' W 076°06'1312.6
2016-Jun-27 10:32N 36°57' W 076°02'1 1.3
2016-Jun-27 09:33N 36°56' W 076°03'3 1.8
2016-Jun-27 08:10N 36°54' W 076°05'0 0.0
2016-Jun-27 04:21N 36°54' W 076°05'0 0.2
2016-Jun-27 03:28N 36°55' W 076°06'0 0.0
2016-Jun-26 22:31N 36°54' W 076°05'3 3.2
2016-Jun-26 21:33N 36°56' W 076°02'3 0.7
2016-Jun-26 17:16N 36°54' W 076°05'1 1.4
2016-Jun-26 16:32N 36°55' W 076°05'0 0.0
2016-Jun-26 13:33N 36°55' W 076°05'2 1.5
2016-Jun-26 12:31N 36°56' W 076°03'2 0.2
2016-Jun-25 22:11N 36°54' W 076°05'3 3.7
2016-Jun-25 21:26N 36°56' W 076°03'3 3.1
2016-Jun-25 20:33N 36°54' W 076°05'7 6.9
2016-Jun-25 19:31N 36°56' W 075°57'5 1.2
2016-Jun-25 15:33N 36°57' W 076°03'3 2.6
2016-Jun-25 14:31N 36°55' W 076°05'1 1.0
2016-Jun-25 13:27N 36°54' W 076°05'2 2.0
2016-Jun-25 12:32N 36°56' W 076°04'2 1.3
2016-Jun-25 11:07N 36°54' W 076°05'4 7.0
2016-Jun-25 10:31N 36°56' W 076°01'4 1.8
2016-Jun-25 08:13N 36°54' W 076°05'2 2.4
2016-Jun-25 07:31N 36°56' W 076°04'1 0.7
2016-Jun-25 06:26N 36°55' W 076°05'1 0.2
2016-Jun-25 00:27N 36°54' W 076°05'3 3.6
2016-Jun-24 23:33N 36°56' W 076°02'1 0.9
2016-Jun-24 22:33N 36°56' W 076°03'1 0.4
2016-Jun-24 19:26N 36°57' W 076°03'1 0.6
2016-Jun-24 18:33N 36°57' W 076°04'7 6.9
2016-Jun-24 17:31N 36°55' W 075°55'7 2.5
2016-Jun-24 14:33N 36°55' W 076°05'1 0.5
2016-Jun-24 12:23N 36°54' W 076°05'7 5.7
2016-Jun-24 11:07N 36°56' W 075°57'7 8.5
2016-Jun-24 10:17N 36°54' W 076°05'1 0.1
2016-Jun-24 04:29N 36°55' W 076°05'4 1.0
2016-Jun-24 00:33N 36°57' W 076°01'4 3.8
2016-Jun-23 23:33N 36°56' W 075°57'7 7.0
2016-Jun-23 22:30N 36°54' W 076°05'0 0.0
2016-Jun-23 20:11N 36°54' W 076°05'2 4.0
2016-Jun-23 19:33N 36°56' W 076°03'2 1.7
2016-Jun-23 18:33N 36°55' W 076°05'0 0.0
2016-Jun-23 14:33N 36°55' W 076°05'2 0.8
2016-Jun-23 12:33N 36°56' W 076°03'2 1.0
2016-Jun-23 10:11N 36°54' W 076°05'0 0.0
2016-Jun-22 16:22N 36°54' W 076°05'0 0.2
2016-Jun-22 15:33N 36°55' W 076°06'0 0.1
2016-Jun-22 13:09N 36°54' W 076°05'4 6.7
2016-Jun-22 12:33N 36°56' W 076°01'4 3.3
2016-Jun-22 11:18N 36°54' W 076°05'4 4.6
2016-Jun-22 10:25N 36°58' W 076°03'4 2.0
2016-Jun-22 08:16N 36°54' W 076°05'4 0.9
2016-Jun-22 04:11N 36°57' W 076°03'4 0.6
2016-Jun-21 22:29N 36°54' W 076°05'0 0.0
2016-Jun-21 19:25N 36°54' W 076°05'0 0.1
2016-Jun-21 18:30N 36°54' W 076°06'1 0.4
2016-Jun-21 15:31N 36°55' W 076°05'  
Track history (hours):
 
Tides and Currents Weather Stations Pressure Air Temp Water Temp Dewpoint Dewpoint Depression Visibility Wind Speed Wind Dir Waves Ship Positions

Norfolk

Owner: Virginia Pilot Boat Corporation, Virginia Beach, VA. More information available from US FCC via Universal Licensing System and Coast Guard Vessel Documentation Center.

Last reported at 2016-Jul-01 13:33 UTC. Time now 2016-Jul-01 17:14 UTC.
Position N 36°54' W 076°05'.

Length 18 m; draft 1.5 m.

Type: Pilot. MMSI: 367512630.

Date/timePositionNaut miles runAvg speedWind from/ knotsBaromVisibWave heightAir tempDewpointWater temp
2016-Jul-01 13:33N 36°54' W 076°05'0 0.0
2016-Jul-01 12:33N 36°54' W 076°05'0 0.0
2016-Jul-01 11:33N 36°54' W 076°05'0 0.0
2016-Jun-29 19:25N 36°54' W 076°05'0 0.0
2016-Jun-29 18:13N 36°54' W 076°05'0 0.0
2016-Jun-29 15:06N 36°54' W 076°05'0 0.0
2016-Jun-29 14:20N 36°54' W 076°05'0 0.0
2016-Jun-29 13:29N 36°54' W 076°05'0 0.0
2016-Jun-28 22:26N 36°54' W 076°06'2 1.5
2016-Jun-28 21:18N 36°56' W 076°04'0 0.1
2016-Jun-28 19:33N 36°56' W 076°04'2 0.4
2016-Jun-28 15:12N 36°54' W 076°05'2 0.9
2016-Jun-28 13:08N 36°56' W 076°05'2 0.2
2016-Jun-28 06:18N 36°55' W 076°05'3 0.3
2016-Jun-27 20:30N 36°57' W 076°04'1 1.2
2016-Jun-27 19:33N 36°56' W 076°04'2 0.6
2016-Jun-27 16:22N 36°54' W 076°05'0 0.5
2016-Jun-27 15:33N 36°55' W 076°05'0 0.2
2016-Jun-27 13:11N 36°54' W 076°05'0 0.0
2016-Jun-27 12:32N 36°54' W 076°05'1514.9
2016-Jun-27 11:33N 37°09' W 076°06'1312.6
2016-Jun-27 10:32N 36°57' W 076°02'1 1.3
2016-Jun-27 09:33N 36°56' W 076°03'3 1.8
2016-Jun-27 08:10N 36°54' W 076°05'0 0.0
2016-Jun-27 04:21N 36°54' W 076°05'0 0.2
2016-Jun-27 03:28N 36°55' W 076°06'0 0.0
2016-Jun-26 22:31N 36°54' W 076°05'3 3.2
2016-Jun-26 21:33N 36°56' W 076°02'3 0.7
2016-Jun-26 17:16N 36°54' W 076°05'1 1.4
2016-Jun-26 16:32N 36°55' W 076°05'0 0.0
2016-Jun-26 13:33N 36°55' W 076°05'2 1.5
2016-Jun-26 12:31N 36°56' W 076°03'2 0.2
2016-Jun-25 22:11N 36°54' W 076°05'3 3.7
2016-Jun-25 21:26N 36°56' W 076°03'3 3.1
2016-Jun-25 20:33N 36°54' W 076°05'7 6.9
2016-Jun-25 19:31N 36°56' W 075°57'5 1.2
2016-Jun-25 15:33N 36°57' W 076°03'3 2.6
2016-Jun-25 14:31N 36°55' W 076°05'1 1.0
2016-Jun-25 13:27N 36°54' W 076°05'2 2.0
2016-Jun-25 12:32N 36°56' W 076°04'2 1.3
2016-Jun-25 11:07N 36°54' W 076°05'4 7.0
2016-Jun-25 10:31N 36°56' W 076°01'4 1.8
2016-Jun-25 08:13N 36°54' W 076°05'2 2.4
2016-Jun-25 07:31N 36°56' W 076°04'1 0.7
2016-Jun-25 06:26N 36°55' W 076°05'1 0.2
2016-Jun-25 00:27N 36°54' W 076°05'3 3.6
2016-Jun-24 23:33N 36°56' W 076°02'1 0.9
2016-Jun-24 22:33N 36°56' W 076°03'1 0.4
2016-Jun-24 19:26N 36°57' W 076°03'1 0.6
2016-Jun-24 18:33N 36°57' W 076°04'7 6.9
2016-Jun-24 17:31N 36°55' W 075°55'7 2.5
2016-Jun-24 14:33N 36°55' W 076°05'1 0.5
2016-Jun-24 12:23N 36°54' W 076°05'7 5.7
2016-Jun-24 11:07N 36°56' W 075°57'7 8.5
2016-Jun-24 10:17N 36°54' W 076°05'1 0.1
2016-Jun-24 04:29N 36°55' W 076°05'4 1.0
2016-Jun-24 00:33N 36°57' W 076°01'4 3.8
2016-Jun-23 23:33N 36°56' W 075°57'7 7.0
2016-Jun-23 22:30N 36°54' W 076°05'0 0.0
2016-Jun-23 20:11N 36°54' W 076°05'2 4.0
2016-Jun-23 19:33N 36°56' W 076°03'2 1.7
2016-Jun-23 18:33N 36°55' W 076°05'0 0.0
2016-Jun-23 14:33N 36°55' W 076°05'2 0.8
2016-Jun-23 12:33N 36°56' W 076°03'2 1.0
2016-Jun-23 10:11N 36°54' W 076°05'0 0.0
2016-Jun-22 16:22N 36°54' W 076°05'0 0.2
2016-Jun-22 15:33N 36°55' W 076°06'0 0.1
2016-Jun-22 13:09N 36°54' W 076°05'4 6.7
2016-Jun-22 12:33N 36°56' W 076°01'4 3.3
2016-Jun-22 11:18N 36°54' W 076°05'4 4.6
2016-Jun-22 10:25N 36°58' W 076°03'4 2.0
2016-Jun-22 08:16N 36°54' W 076°05'4 0.9
2016-Jun-22 04:11N 36°57' W 076°03'4 0.6
2016-Jun-21 22:29N 36°54' W 076°05'0 0.0
2016-Jun-21 19:25N 36°54' W 076°05'0 0.1
2016-Jun-21 18:30N 36°54' W 076°06'1 0.4
2016-Jun-21 15:31N 36°55' W 076°05'  

Dump ship's entire track history